Time;durP1;ratioP1;P1;durP2;ratioP2;P2;SDS_P1;SDS_P2;PMS_P1;PMS_P2;Temp;Humidity;BMP_temperature;BMP_pressure;BME280_temperature;BME280_humidity;BME280_pressure;Samples;Min_cycle;Max_cycle;Signal;HPM_P1;HPM_P2
2022/12/06 00:03:56;;;;;;;234.10;120.05;;;;;;;2.74;100.00;99152.91;4318409;80;21599;-88
2022/12/06 00:09:59;;;;;;;214.00;109.22;;;;;;;2.73;100.00;99142.63;4319997;80;20984;-89
2022/12/06 00:16:05;;;;;;;248.45;122.80;;;;;;;2.73;100.00;99137.78;4323417;80;21457;-89
2022/12/06 00:22:06;;;;;;;208.87;110.43;;;;;;;2.69;100.00;99126.80;4307431;80;21962;-90
2022/12/06 00:28:08;;;;;;;216.35;109.30;;;;;;;2.72;100.00;99124.03;4318962;80;21182;-92
2022/12/06 00:34:09;;;;;;;220.88;116.67;;;;;;;2.72;100.00;99135.66;4317489;80;21003;-90
2022/12/06 00:40:11;;;;;;;228.18;116.35;;;;;;;2.76;100.00;99135.23;4326302;80;21034;-90
2022/12/06 00:46:20;;;;;;;221.80;120.30;;;;;;;2.80;100.00;99134.05;4328889;80;20954;-90
2022/12/06 00:52:21;;;;;;;216.35;113.45;;;;;;;2.79;100.00;99119.72;4340473;79;21445;-89
2022/12/06 00:58:23;;;;;;;214.95;113.30;;;;;;;2.83;100.00;99127.45;4418473;79;21050;-90
2022/12/06 01:04:24;;;;;;;208.00;110.28;;;;;;;2.87;100.00;99120.27;4431394;79;21614;-90
2022/12/06 01:10:26;;;;;;;223.68;112.12;;;;;;;2.89;100.00;99119.40;4424632;79;20996;-90
2022/12/06 01:16:29;;;;;;;214.12;110.25;;;;;;;2.90;100.00;99101.25;4416148;79;20960;-91
2022/12/06 01:22:31;;;;;;;210.63;109.00;;;;;;;2.87;100.00;99089.17;4390399;79;20964;-88
2022/12/06 01:28:33;;;;;;;224.07;117.05;;;;;;;2.83;100.00;99084.73;4444293;79;20979;-88
2022/12/06 01:34:35;;;;;;;238.52;118.53;;;;;;;2.81;100.00;99081.00;4421908;79;21534;-88
2022/12/06 01:40:41;;;;;;;219.07;114.12;;;;;;;2.88;100.00;99071.05;4401307;79;21035;-88
2022/12/06 01:46:44;;;;;;;232.75;116.55;;;;;;;2.91;100.00;99065.00;4404117;79;20972;-88
2022/12/06 01:52:56;;;;;;;212.95;111.10;;;;;;;2.93;100.00;99054.63;4405246;79;21051;-88
2022/12/06 01:58:58;;;;;;;201.22;104.15;;;;;;;2.89;100.00;99024.77;4311193;80;21441;-88
2022/12/06 02:05:01;;;;;;;214.45;109.52;;;;;;;2.84;100.00;99029.54;4315498;80;20972;-87
2022/12/06 02:11:04;;;;;;;213.37;104.25;;;;;;;2.85;100.00;99006.23;4300711;80;21027;-88
2022/12/06 02:17:38;;;;;;;190.43;97.10;;;;;;;2.88;100.00;99006.94;4308164;80;21067;-89
2022/12/06 02:24:14;;;;;;;192.07;98.40;;;;;;;2.93;100.00;99008.66;4304972;80;20999;-88
2022/12/06 02:30:46;;;;;;;190.35;96.85;;;;;;;2.94;100.00;99002.16;4223183;83;21038;-88
2022/12/06 02:37:01;;;;;;;187.05;100.15;;;;;;;2.91;100.00;98981.17;4247892;80;21040;-89
2022/12/06 02:43:13;;;;;;;126.50;68.43;;;;;;;2.90;100.00;98958.75;4301049;80;21019;-88
2022/12/06 02:49:16;;;;;;;194.00;102.50;;;;;;;2.88;100.00;98963.67;4306228;80;21004;-87
2022/12/06 02:55:19;;;;;;;177.30;93.52;;;;;;;2.87;100.00;98942.37;4296296;80;21111;-89
2022/12/06 03:01:25;;;;;;;182.53;93.65;;;;;;;2.88;100.00;98948.03;4291240;81;21098;-89
2022/12/06 03:07:44;;;;;;;170.53;87.78;;;;;;;2.92;100.00;98942.20;4302558;81;21918;-88
2022/12/06 03:13:51;;;;;;;175.12;86.90;;;;;;;2.95;100.00;98940.19;4230655;82;21007;-88
2022/12/06 03:19:58;;;;;;;171.02;87.65;;;;;;;3.00;100.00;98938.66;4252536;82;21007;-88
2022/12/06 03:26:01;;;;;;;173.78;88.12;;;;;;;3.05;100.00;98929.78;4436697;78;21016;-89
2022/12/06 03:32:05;;;;;;;155.45;80.75;;;;;;;3.09;100.00;98919.11;4415769;79;20981;-88
2022/12/06 03:38:15;;;;;;;166.88;87.70;;;;;;;3.13;100.00;98907.89;4406304;79;21026;-88
2022/12/06 03:44:18;;;;;;;175.03;86.25;;;;;;;3.15;100.00;98909.68;4436757;79;21035;-88
2022/12/06 03:50:30;;;;;;;165.73;82.53;;;;;;;3.18;100.00;98904.97;4444231;79;20987;-88
2022/12/06 03:56:35;;;;;;;151.45;80.38;;;;;;;3.18;100.00;98897.66;4401865;79;21073;-89
2022/12/06 04:02:36;;;;;;;141.85;74.87;;;;;;;3.19;100.00;98880.87;4436085;79;21543;-88
2022/12/06 04:08:38;;;;;;;150.38;77.97;;;;;;;3.20;100.00;98877.03;4339961;76;33768;-88
2022/12/06 04:14:39;;;;;;;144.02;74.45;;;;;;;3.23;100.00;98881.02;4237992;83;21054;-88
2022/12/06 04:39:53;;;;;;;141.00;72.75;;;;;;;3.24;100.00;98862.52;4465701;78;21030;-89
2022/12/06 04:45:55;;;;;;;137.20;70.92;;;;;;;3.26;100.00;98857.36;4479258;78;21005;-89
2022/12/06 04:51:56;;;;;;;141.00;72.70;;;;;;;3.24;100.00;98873.34;4476592;77;20998;-89
2022/12/06 04:57:57;;;;;;;133.43;65.62;;;;;;;3.27;100.00;98873.81;4388698;79;21015;-89
2022/12/06 05:03:59;;;;;;;124.95;64.20;;;;;;;3.23;100.00;98869.61;4319766;81;21063;-89
2022/12/06 05:10:00;;;;;;;117.50;59.15;;;;;;;3.22;100.00;98863.98;4395105;79;21676;-90
2022/12/06 05:16:05;;;;;;;113.37;58.17;;;;;;;3.24;100.00;98859.81;4409856;79;21551;-90
2022/12/06 05:22:06;;;;;;;108.05;56.75;;;;;;;3.25;100.00;98848.44;4416172;79;21089;-89
2022/12/06 05:28:08;;;;;;;116.97;57.60;;;;;;;3.23;100.00;98840.44;4477943;77;20960;-89
2022/12/06 05:34:10;;;;;;;107.25;53.17;;;;;;;3.20;100.00;98830.50;4474513;77;20936;-89
2022/12/06 05:40:12;;;;;;;97.00;49.15;;;;;;;3.19;100.00;98829.48;4471761;78;21061;-88
2022/12/06 05:46:14;;;;;;;97.05;48.40;;;;;;;3.19;100.00;98830.25;4472227;78;20989;-89
2022/12/06 05:52:16;;;;;;;90.97;48.17;;;;;;;3.15;100.00;98817.72;4468067;78;20975;-89
2022/12/06 05:58:18;;;;;;;96.35;48.85;;;;;;;3.09;100.00;98802.27;4458366;78;21513;-89
2022/12/06 06:04:20;;;;;;;87.70;42.85;;;;;;;3.08;100.00;98799.89;4453288;78;21069;-88
2022/12/06 06:10:21;;;;;;;93.60;48.33;;;;;;;3.08;100.00;98812.86;4401266;79;20975;-89
2022/12/06 06:16:23;;;;;;;94.77;48.38;;;;;;;3.03;100.00;98821.72;4392584;79;20983;-88
2022/12/06 06:22:24;;;;;;;89.58;47.62;;;;;;;3.02;100.00;98814.73;4447341;78;21076;-89
2022/12/06 06:28:26;;;;;;;98.37;49.95;;;;;;;3.05;100.00;98816.20;4401989;79;21010;-90
2022/12/06 06:34:27;;;;;;;97.22;48.63;;;;;;;3.08;100.00;98814.77;4448894;78;20990;-89
2022/12/06 06:40:29;;;;;;;89.85;47.50;;;;;;;3.04;100.00;98798.41;4447607;78;21025;-89
2022/12/06 06:46:31;;;;;;;94.37;47.67;;;;;;;3.00;100.00;98792.08;4451324;78;20937;-90
2022/12/06 06:52:32;;;;;;;86.85;47.05;;;;;;;2.98;100.00;98796.22;4446951;78;21046;-89
2022/12/06 06:58:33;;;;;;;81.40;43.40;;;;;;;2.98;100.00;98788.11;4343131;79;21929;-90
2022/12/06 07:04:35;;;;;;;81.20;45.75;;;;;;;2.97;100.00;98785.18;4315666;81;21062;-89
2022/12/06 07:10:47;;;;;;;81.35;45.75;;;;;;;2.97;100.00;98781.13;4503201;77;21014;-89
2022/12/06 07:16:46;;;;;;;80.47;45.45;;;;;;;2.97;100.00;98783.28;4515215;77;20968;-88
2022/12/06 07:22:47;;;;;;;83.30;47.78;;;;;;;3.00;100.00;98782.62;4484406;77;20976;-89
2022/12/06 07:28:50;;;;;;;79.95;46.13;;;;;;;3.02;100.00;98779.00;4505169;77;21018;-90
2022/12/06 07:34:51;;;;;;;83.15;47.03;;;;;;;3.00;100.00;98768.30;4496049;77;21925;-90
2022/12/06 07:40:56;;;;;;;80.72;45.95;;;;;;;2.98;100.00;98760.52;4470985;77;20933;-89
2022/12/06 07:46:59;;;;;;;77.22;45.23;;;;;;;2.97;100.00;98756.80;4507251;77;20964;-90
2022/12/06 07:53:00;;;;;;;78.92;44.80;;;;;;;2.96;100.00;98756.57;4489714;77;20924;-89
2022/12/06 07:59:02;;;;;;;81.00;44.33;;;;;;;2.95;100.00;98754.97;4398596;77;20994;-89
2022/12/06 08:05:04;;;;;;;78.50;44.60;;;;;;;2.99;100.00;98743.74;4392364;79;20992;-89
2022/12/06 08:11:07;;;;;;;75.15;41.83;;;;;;;3.05;100.00;98730.24;4405491;79;20975;-89
2022/12/06 08:17:08;;;;;;;77.05;41.50;;;;;;;3.11;100.00;98743.23;4398427;79;20991;-90
2022/12/06 08:23:10;;;;;;;75.45;41.45;;;;;;;3.20;100.00;98729.61;4393327;79;21003;-89
2022/12/06 08:29:12;;;;;;;72.47;41.90;;;;;;;3.20;100.00;98739.08;4399948;79;20991;-89
2022/12/06 08:35:13;;;;;;;61.68;36.45;;;;;;;3.23;100.00;98736.29;4403554;79;21898;-89
2022/12/06 08:47:25;;;;;;;57.67;34.70;;;;;;;3.28;100.00;98736.86;4377426;79;20947;-90
2022/12/06 08:53:26;;;;;;;59.85;34.65;;;;;;;3.32;100.00;98754.58;4403844;79;21014;-89
2022/12/06 08:59:28;;;;;;;56.98;32.75;;;;;;;3.32;100.00;98744.52;4448321;77;21009;-89
2022/12/06 09:05:34;;;;;;;54.20;33.58;;;;;;;3.34;100.00;98745.55;4489397;77;21448;-89
2022/12/06 09:11:36;;;;;;;55.55;35.00;;;;;;;3.36;100.00;98740.05;4376743;79;21012;-89
2022/12/06 09:17:38;;;;;;;57.53;34.83;;;;;;;3.41;100.00;98745.80;4485505;77;21007;-89
2022/12/06 09:23:39;;;;;;;69.62;44.00;;;;;;;3.43;100.00;98742.98;4480590;77;21612;-89
2022/12/06 09:29:41;;;;;;;62.67;38.78;;;;;;;3.44;100.00;98739.73;4473444;77;21030;-89
2022/12/06 09:35:43;;;;;;;62.48;37.95;;;;;;;3.44;100.00;98725.64;4384941;79;21072;-89
2022/12/06 09:41:59;;;;;;;63.63;35.40;;;;;;;3.47;100.00;98720.91;4483479;77;20955;-89
2022/12/06 09:48:30;;;;;;;55.50;35.35;;;;;;;3.50;100.00;98712.67;4495475;77;21014;-90
2022/12/06 09:54:49;;;;;;;52.85;34.08;;;;;;;3.48;100.00;98700.06;4474734;77;22382;-89
2022/12/06 10:01:37;;;;;;;56.85;35.03;;;;;;;3.49;100.00;98698.92;4375036;79;20996;-90
2022/12/06 10:07:53;;;;;;;52.93;31.73;;;;;;;3.53;100.00;98686.29;4397595;79;21042;-90
2022/12/06 10:14:28;;;;;;;37.33;24.23;;;;;;;3.56;100.00;98681.00;4377932;80;21303;-89
2022/12/06 10:20:44;;;;;;;57.90;36.20;;;;;;;3.56;100.00;98672.89;4378974;79;21664;-89
2022/12/06 10:26:54;;;;;;;40.40;25.17;;;;;;;3.56;100.00;98676.95;4399626;79;20994;-90
2022/12/06 10:33:09;;;;;;;50.95;32.48;;;;;;;3.63;100.00;98676.39;4398829;79;21018;-89
2022/12/06 10:39:25;;;;;;;52.60;32.40;;;;;;;3.66;100.00;98670.30;4398680;79;20990;-89
2022/12/06 10:52:34;;;;;;;56.73;32.40;;;;;;;3.73;100.00;98652.95;4359977;80;21378;-89
2022/12/06 10:58:59;;;;;;;50.78;32.15;;;;;;;3.75;100.00;98648.77;4304301;79;21035;-91
2022/12/06 11:12:27;;;;;;;52.23;31.93;;;;;;;3.89;100.00;98644.36;4407968;79;21964;-90
2022/12/06 11:18:29;;;;;;;45.10;29.18;;;;;;;3.98;100.00;98635.54;4414594;79;20984;-90
2022/12/06 11:24:47;;;;;;;54.30;33.10;;;;;;;3.98;100.00;98630.92;4213550;83;21392;-88
2022/12/06 11:30:50;;;;;;;55.13;32.80;;;;;;;3.85;100.00;98634.79;4308272;80;21031;-91
2022/12/06 11:36:54;;;;;;;;;;;;;;;3.79;100.00;98623.94;4302761;81;21050;-90
2022/12/06 11:42:59;;;;;;;51.58;31.77;;;;;;;3.87;100.00;98627.68;4228520;82;20112;-89
2022/12/06 11:49:19;;;;;;;55.43;34.18;;;;;;;3.95;100.00;98626.19;4411758;79;20982;-90
2022/12/06 11:55:27;;;;;;;64.20;38.73;;;;;;;3.99;100.00;98628.46;4417427;79;21685;-90
2022/12/06 12:01:46;;;;;;;61.75;38.90;;;;;;;3.96;100.00;98635.88;4396730;79;21000;-90
2022/12/06 12:08:21;;;;;;;57.65;33.08;;;;;;;3.94;100.00;98633.30;4412299;79;20986;-91
2022/12/06 12:14:37;;;;;;;62.90;36.30;;;;;;;3.94;100.00;98627.33;4416437;79;21019;-90
2022/12/06 12:20:44;;;;;;;65.00;36.98;;;;;;;3.94;100.00;98617.85;4417928;79;21019;-90
2022/12/06 12:26:46;;;;;;;63.75;39.42;;;;;;;3.96;100.00;98614.22;4420739;79;21041;-90
2022/12/06 12:32:52;;;;;;;71.55;40.43;;;;;;;3.99;100.00;98610.86;4417144;78;21058;-90
2022/12/06 12:39:00;;;;;;;65.32;38.35;;;;;;;4.05;100.00;98614.11;4411432;79;21610;-91
2022/12/06 12:45:04;;;;;;;63.87;37.85;;;;;;;4.09;100.00;98613.63;4415157;79;21022;-90
2022/12/06 12:51:30;;;;;;;62.37;37.93;;;;;;;4.13;100.00;98606.42;4409593;79;21522;-89
2022/12/06 12:57:31;;;;;;;60.50;36.28;;;;;;;4.14;100.00;98604.72;4437993;78;20968;-90
2022/12/06 13:03:34;;;;;;;62.50;36.98;;;;;;;4.18;100.00;98603.48;4470091;78;21606;-90
2022/12/06 13:10:02;;;;;;;57.55;34.30;;;;;;;4.21;100.00;98592.73;4468321;77;21059;-90
2022/12/06 13:16:11;;;;;;;42.55;25.50;;;;;;;4.26;100.00;98601.98;4463551;77;21029;-90
2022/12/06 13:22:24;;;;;;;39.88;24.45;;;;;;;4.17;100.00;98598.63;4392473;79;21008;-90
2022/12/06 13:28:31;;;;;;;21.12;14.40;;;;;;;4.09;100.00;98600.09;4381920;79;20983;-89
2022/12/06 13:34:38;;;;;;;21.07;13.83;;;;;;;3.97;100.00;98597.41;4288858;81;21070;-90
2022/12/06 13:40:52;;;;;;;25.72;15.70;;;;;;;3.90;100.00;98600.69;4271877;81;21064;-90
2022/12/06 13:46:59;;;;;;;20.40;13.58;;;;;;;3.95;100.00;98603.73;4374837;79;20983;-90
2022/12/06 13:53:02;;;;;;;18.20;12.95;;;;;;;3.87;100.00;98608.14;4371834;79;20984;-90
2022/12/06 13:59:18;;;;;;;16.12;9.95;;;;;;;3.77;100.00;98605.11;4334946;80;22363;-91
2022/12/06 14:05:56;;;;;;;12.13;7.45;;;;;;;3.59;100.00;98596.98;4352052;80;22040;-90
2022/12/06 14:11:59;;;;;;;11.90;7.85;;;;;;;3.44;100.00;98595.76;4353338;80;20945;-89
2022/12/06 14:18:01;;;;;;;12.90;7.58;;;;;;;3.32;100.00;98601.14;4353204;80;21046;-90
2022/12/06 14:24:03;;;;;;;11.75;8.10;;;;;;;3.25;100.00;98592.80;4339176;80;21002;-90
2022/12/06 14:30:23;;;;;;;14.47;9.55;;;;;;;3.24;100.00;98585.83;4350435;80;20977;-89
2022/12/06 14:36:32;;;;;;;18.23;11.33;;;;;;;3.17;100.00;98589.08;4463905;77;21538;-89
2022/12/06 14:55:18;;;;;;;22.22;13.13;;;;;;;3.04;100.00;98594.23;4454236;78;21023;-89
2022/12/06 15:01:26;;;;;;;27.07;16.20;;;;;;;3.03;100.00;98603.48;4469213;77;21002;-89
2022/12/06 15:07:41;;;;;;;24.40;15.55;;;;;;;2.95;100.00;98598.95;4463745;77;21905;-91
2022/12/06 15:13:44;;;;;;;29.50;16.48;;;;;;;2.90;100.00;98592.39;4470502;78;21446;-89
2022/12/06 15:19:50;;;;;;;23.07;14.30;;;;;;;2.88;100.00;98595.22;4461426;77;20997;-89
2022/12/06 15:25:51;;;;;;;23.50;15.28;;;;;;;2.94;100.00;98595.23;4393808;79;20963;-87
2022/12/06 15:31:54;;;;;;;25.88;16.35;;;;;;;2.94;100.00;98598.70;4391209;79;21016;-89
2022/12/06 15:37:56;;;;;;;33.53;20.48;;;;;;;2.91;100.00;98591.26;4389073;79;21042;-88
2022/12/06 15:44:01;;;;;;;32.70;19.87;;;;;;;2.90;100.00;98587.54;4395526;79;21105;-91
2022/12/06 15:50:04;;;;;;;35.60;23.02;;;;;;;2.83;100.00;98589.47;4391399;79;21001;-88
2022/12/06 15:56:08;;;;;;;39.03;24.80;;;;;;;2.69;100.00;98584.12;4398259;79;20939;-89
2022/12/06 16:02:17;;;;;;;38.28;21.68;;;;;;;2.52;100.00;98584.28;4483112;77;22118;-89
2022/12/06 16:08:21;;;;;;;44.03;24.72;;;;;;;2.49;100.00;98583.59;4486228;77;20983;-89
2022/12/06 16:14:23;;;;;;;32.48;20.08;;;;;;;2.50;100.00;98579.77;4475623;77;21155;-89
2022/12/06 16:20:31;;;;;;;30.40;18.02;;;;;;;2.47;100.00;98581.78;4482742;77;20999;-90
2022/12/06 16:26:40;;;;;;;32.65;19.90;;;;;;;2.43;100.00;98570.84;4492915;77;21931;-90
2022/12/06 16:32:49;;;;;;;37.55;20.68;;;;;;;2.47;100.00;98569.07;4499406;77;21371;-90
2022/12/06 16:38:54;;;;;;;37.48;21.57;;;;;;;2.50;100.00;98578.41;4508497;77;21038;-89
2022/12/06 16:45:01;;;;;;;33.83;18.82;;;;;;;2.52;100.00;98575.59;4511568;77;21014;-90
2022/12/06 16:51:02;;;;;;;28.60;17.12;;;;;;;2.54;100.00;98577.41;4499484;77;21550;-90
2022/12/06 16:57:06;;;;;;;23.90;14.45;;;;;;;2.58;100.00;98578.90;4489494;77;21856;-88
2022/12/06 17:03:10;;;;;;;22.98;13.03;;;;;;;2.60;100.00;98578.78;4455584;78;21033;-90
2022/12/06 17:09:12;;;;;;;24.70;13.40;;;;;;;2.63;100.00;98580.05;4466522;78;21007;-91
2022/12/06 17:15:20;;;;;;;27.48;15.20;;;;;;;2.65;100.00;98581.28;4471677;78;21029;-90
2022/12/06 17:21:22;;;;;;;25.12;14.30;;;;;;;2.66;100.00;98587.48;4461852;78;21062;-90
2022/12/06 17:27:24;;;;;;;22.95;14.60;;;;;;;2.68;100.00;98582.52;4462552;78;21015;-90
2022/12/06 17:33:30;;;;;;;29.87;16.52;;;;;;;2.69;100.00;98590.87;4459227;78;21039;-90
2022/12/06 17:39:32;;;;;;;20.10;12.00;;;;;;;2.70;100.00;98585.69;4469822;77;21109;-91
2022/12/06 17:45:33;;;;;;;26.20;15.68;;;;;;;2.69;100.00;98582.77;4464592;78;20999;-90
2022/12/06 17:51:35;;;;;;;30.72;18.32;;;;;;;2.71;100.00;98588.05;4495052;78;21038;-91
2022/12/06 17:57:36;;;;;;;22.37;13.98;;;;;;;2.69;100.00;98583.53;4454806;77;21585;-90
2022/12/06 18:03:37;;;;;;;24.87;14.23;;;;;;;2.69;100.00;98590.29;4421228;79;21017;-89
2022/12/06 18:09:39;;;;;;;22.35;12.93;;;;;;;2.66;100.00;98582.85;4418265;79;21025;-89
2022/12/06 18:15:42;;;;;;;18.52;10.95;;;;;;;2.64;100.00;98596.48;4406333;79;21483;-90
2022/12/06 18:21:45;;;;;;;16.27;9.83;;;;;;;2.62;100.00;98591.96;4417605;79;20999;-89
2022/12/06 18:27:47;;;;;;;21.27;10.93;;;;;;;2.59;100.00;98585.32;4404702;79;21011;-90
2022/12/06 18:33:50;;;;;;;28.55;15.53;;;;;;;2.59;100.00;98598.03;4410045;79;21563;-91
2022/12/06 18:39:52;;;;;;;25.57;14.40;;;;;;;2.58;100.00;98589.70;4383304;79;21042;-90
2022/12/06 18:46:02;;;;;;;22.45;13.93;;;;;;;2.54;100.00;98588.77;4414147;79;21063;-90
2022/12/06 18:52:04;;;;;;;27.25;15.48;;;;;;;2.52;100.00;98577.53;4407525;79;21562;-90
2022/12/06 18:58:05;;;;;;;27.77;15.23;;;;;;;2.47;100.00;98580.43;4404706;79;21054;-89
2022/12/06 19:04:13;;;;;;;28.12;14.23;;;;;;;2.42;100.00;98585.48;4404860;79;20978;-89
2022/12/06 19:10:13;;;;;;;32.83;15.03;;;;;;;2.39;100.00;98580.73;4411417;79;21511;-90
2022/12/06 19:16:16;;;;;;;27.00;14.53;;;;;;;2.35;100.00;98591.96;4415805;79;20995;-90
2022/12/06 19:22:18;;;;;;;23.87;14.13;;;;;;;2.32;100.00;98581.05;4402063;79;21074;-91
2022/12/06 19:28:19;;;;;;;27.00;14.70;;;;;;;2.30;100.00;98584.05;4390671;79;20967;-91
2022/12/06 19:34:25;;;;;;;23.83;13.85;;;;;;;2.27;100.00;98588.00;4408346;79;21019;-90
2022/12/06 19:40:27;;;;;;;25.80;15.00;;;;;;;2.21;100.00;98590.09;4409830;79;21498;-91
2022/12/06 19:46:29;;;;;;;35.92;18.75;;;;;;;2.15;100.00;98590.61;4411976;79;21042;-91
2022/12/06 19:52:30;;;;;;;29.10;17.12;;;;;;;2.10;100.00;98580.03;4385293;79;20931;-90
2022/12/06 19:58:32;;;;;;;34.25;19.50;;;;;;;2.09;100.00;98580.58;4400122;79;20963;-90
2022/12/06 20:04:38;;;;;;;31.62;17.80;;;;;;;2.10;100.00;98588.13;4391276;79;21511;-91
2022/12/06 20:10:40;;;;;;;27.47;17.20;;;;;;;2.09;100.00;98586.53;4396482;79;20975;-91
2022/12/06 20:16:42;;;;;;;24.63;16.02;;;;;;;2.09;100.00;98581.13;4405252;79;20995;-90
2022/12/06 20:22:44;;;;;;;28.35;15.38;;;;;;;2.08;100.00;98580.91;4395483;80;20969;-91
2022/12/06 20:28:47;;;;;;;27.80;15.00;;;;;;;2.08;100.00;98571.46;4392074;79;20979;-91
2022/12/06 20:34:48;;;;;;;30.20;15.43;;;;;;;2.11;100.00;98572.16;4388731;79;20987;-90
2022/12/06 20:40:49;;;;;;;24.55;14.10;;;;;;;2.09;100.00;98574.38;4397544;79;20982;-90
2022/12/06 20:46:52;;;;;;;19.00;11.90;;;;;;;2.06;100.00;98568.30;4390729;80;21002;-90
2022/12/06 20:52:54;;;;;;;23.45;12.98;;;;;;;2.06;100.00;98565.59;4403226;79;21019;-91
2022/12/06 20:58:57;;;;;;;23.62;12.43;;;;;;;2.03;100.00;98571.11;4400106;78;21081;-91
2022/12/06 21:05:02;;;;;;;18.87;11.28;;;;;;;2.03;100.00;98582.45;4263519;78;10000467;-90
2022/12/06 21:11:05;;;;;;;21.20;11.75;;;;;;;2.03;100.00;98579.75;4382252;79;21011;-91
2022/12/06 21:17:07;;;;;;;16.80;10.63;;;;;;;1.99;100.00;98582.31;4341224;80;21007;-90
2022/12/06 21:23:08;;;;;;;19.40;10.88;;;;;;;1.97;100.00;98585.92;4327910;80;22016;-90
2022/12/06 21:29:17;;;;;;;22.05;10.82;;;;;;;1.96;100.00;98593.00;4341799;80;20947;-90
2022/12/06 21:35:19;;;;;;;18.70;11.40;;;;;;;1.98;100.00;98594.79;4468853;77;21510;-90
2022/12/06 21:41:21;;;;;;;19.50;10.72;;;;;;;1.99;100.00;98602.56;4470812;78;20985;-90
2022/12/06 21:47:22;;;;;;;21.42;12.82;;;;;;;2.01;100.00;98603.03;4464879;78;21851;-90
2022/12/06 21:53:24;;;;;;;22.82;13.00;;;;;;;1.99;100.00;98590.41;4378239;79;21011;-90
2022/12/06 21:59:25;;;;;;;22.52;13.00;;;;;;;2.00;100.00;98589.86;4374957;79;21024;-90
2022/12/06 22:05:27;;;;;;;23.18;12.90;;;;;;;1.99;100.00;98592.34;4355498;80;22019;-90
2022/12/06 22:11:29;;;;;;;24.37;14.55;;;;;;;2.00;100.00;98599.31;4354515;80;21074;-90
2022/12/06 22:17:30;;;;;;;27.67;14.07;;;;;;;2.01;100.00;98598.98;4355580;80;21078;-93
2022/12/06 22:23:33;;;;;;;26.45;12.40;;;;;;;2.00;100.00;98598.77;4365098;80;21959;-90
2022/12/06 22:29:38;;;;;;;16.10;10.85;;;;;;;2.01;100.00;98605.73;4464480;78;21055;-90
2022/12/06 22:35:39;;;;;;;23.55;12.75;;;;;;;2.02;100.00;98597.84;4466345;78;20974;-88
2022/12/06 22:41:40;;;;;;;24.10;11.40;;;;;;;2.01;100.00;98596.83;4470870;77;21089;-90
2022/12/06 22:47:41;;;;;;;23.50;13.10;;;;;;;1.99;100.00;98603.91;4460797;78;21040;-90
2022/12/06 22:53:47;;;;;;;24.72;14.50;;;;;;;2.00;100.00;98588.51;4456179;78;21038;-90
2022/12/06 22:59:51;;;;;;;31.57;15.80;;;;;;;1.97;100.00;98585.92;4466571;78;21047;-90
2022/12/06 23:05:58;;;;;;;30.80;17.82;;;;;;;1.98;100.00;98581.30;4463128;77;21030;-91
2022/12/06 23:11:59;;;;;;;28.83;16.90;;;;;;;2.00;100.00;98577.16;4388268;79;21888;-90
2022/12/06 23:18:02;;;;;;;31.23;16.17;;;;;;;1.99;100.00;98574.21;4325169;81;21106;-89
2022/12/06 23:24:08;;;;;;;28.23;14.35;;;;;;;1.98;100.00;98569.94;4398607;79;22027;-90
2022/12/06 23:30:10;;;;;;;23.92;14.30;;;;;;;1.98;100.00;98568.59;4413573;79;21054;-92
2022/12/06 23:36:17;;;;;;;29.02;16.30;;;;;;;1.98;100.00;98571.84;4412180;79;21031;-91
2022/12/06 23:42:19;;;;;;;23.00;15.38;;;;;;;1.98;100.00;98556.45;4405099;79;21105;-90
2022/12/06 23:48:20;;;;;;;21.33;13.43;;;;;;;1.99;100.00;98558.59;4458502;78;21003;-91
2022/12/06 23:54:22;;;;;;;24.30;13.10;;;;;;;2.00;100.00;98558.81;4475151;78;21105;-91
